sensor_id;sensor_type;location;lat;lon;timestamp;pressure;altitude;pressure_sealevel;temperature;humidity
44531;BME280;30240;47.418;0.700;2022-10-30T00:00:59;100483.5693359375;;;14.43;84.76
44531;BME280;30240;47.418;0.700;2022-10-30T00:03:24;100483.6669921875;;;14.55;84.17
44531;BME280;30240;47.418;0.700;2022-10-30T00:05:50;100479.5166015625;;;14.49;84.38
44531;BME280;30240;47.418;0.700;2022-10-30T00:08:16;100478.68041992188;;;14.51;84.36
44531;BME280;30240;47.418;0.700;2022-10-30T00:10:39;100472.07641601562;;;14.59;84.04
44531;BME280;30240;47.418;0.700;2022-10-30T00:13:04;100472.07641601562;;;14.59;84.04
44531;BME280;30240;47.418;0.700;2022-10-30T00:15:29;100457.14111328125;;;14.61;83.83
44531;BME280;30240;47.418;0.700;2022-10-30T00:17:54;100457.14111328125;;;14.6;83.76
44531;BME280;30240;47.418;0.700;2022-10-30T00:20:18;100462.39013671875;;;14.71;83.54
44531;BME280;30240;47.418;0.700;2022-10-30T00:22:44;100461.71875;;;14.8;83.25
44531;BME280;30240;47.418;0.700;2022-10-30T00:25:09;100461.71875;;;14.8;83.25
44531;BME280;30240;47.418;0.700;2022-10-30T00:27:34;100457.6416015625;;;14.88;83.01
44531;BME280;30240;47.418;0.700;2022-10-30T00:29:58;100461.46850585938;;;15.01;82.61
44531;BME280;30240;47.418;0.700;2022-10-30T00:32:24;100464.15405273438;;;15.05;82.27
44531;BME280;30240;47.418;0.700;2022-10-30T00:34:49;100460.29663085938;;;15.19;81.78
44531;BME280;30240;47.418;0.700;2022-10-30T00:37:13;100460.29663085938;;;15.19;81.78
44531;BME280;30240;47.418;0.700;2022-10-30T00:39:39;100454.736328125;;;15.26;81.28
44531;BME280;30240;47.418;0.700;2022-10-30T00:42:04;100448.10180664062;;;15.34;80.89
44531;BME280;30240;47.418;0.700;2022-10-30T00:44:44;100441.9677734375;;;15.49;80.3
44531;BME280;30240;47.418;0.700;2022-10-30T00:46:54;100432.62329101562;;;15.49;80.39
44531;BME280;30240;47.418;0.700;2022-10-30T00:49:19;100432.62329101562;;;15.49;80.39
44531;BME280;30240;47.418;0.700;2022-10-30T00:51:47;100430.10864257812;;;15.64;79.85
44531;BME280;30240;47.418;0.700;2022-10-30T00:54:09;100425.56762695312;;;15.81;79.54
44531;BME280;30240;47.418;0.700;2022-10-30T00:56:34;100428.99780273438;;;15.85;79.32
44531;BME280;30240;47.418;0.700;2022-10-30T00:59:01;100426.11083984375;;;15.85;79.23
44531;BME280;30240;47.418;0.700;2022-10-30T01:01:25;100419.04907226562;;;15.85;79.53
44531;BME280;30240;47.418;0.700;2022-10-30T01:03:52;100419.04907226562;;;15.85;79.53
44531;BME280;30240;47.418;0.700;2022-10-30T01:06:15;100400.54931640625;;;15.86;78.86
44531;BME280;30240;47.418;0.700;2022-10-30T01:08:39;100407.03125;;;15.57;80.28
44531;BME280;30240;47.418;0.700;2022-10-30T01:11:04;100409.95483398438;;;15.23;81.48
44531;BME280;30240;47.418;0.700;2022-10-30T01:13:29;100416.63208007812;;;14.83;82.96
44531;BME280;30240;47.418;0.700;2022-10-30T01:16:02;100416.63208007812;;;14.83;82.96
44531;BME280;30240;47.418;0.700;2022-10-30T01:16:09;100416.63208007812;;;14.83;82.96
44531;BME280;30240;47.418;0.700;2022-10-30T01:16:16;100416.63208007812;;;14.83;82.96
44531;BME280;30240;47.418;0.700;2022-10-30T01:16:33;100416.63208007812;;;14.83;82.96
44531;BME280;30240;47.418;0.700;2022-10-30T01:16:35;100416.63208007812;;;14.83;82.96
44531;BME280;30240;47.418;0.700;2022-10-30T01:18:23;100422.2412109375;;;14.7;83.53
44531;BME280;30240;47.418;0.700;2022-10-30T01:21:11;100427.685546875;;;14.55;84.39
44531;BME280;30240;47.418;0.700;2022-10-30T01:23:15;100428.9794921875;;;14.43;84.37
44531;BME280;30240;47.418;0.700;2022-10-30T01:23:21;100428.9794921875;;;14.43;84.37
44531;BME280;30240;47.418;0.700;2022-10-30T01:23:29;100428.9794921875;;;14.43;84.37
44531;BME280;30240;47.418;0.700;2022-10-30T01:23:35;100428.9794921875;;;14.43;84.37
44531;BME280;30240;47.418;0.700;2022-10-30T01:25:47;100422.14965820312;;;14.44;84.68
44531;BME280;30240;47.418;0.700;2022-10-30T01:28:03;100422.14965820312;;;14.44;84.68
44531;BME280;30240;47.418;0.700;2022-10-30T01:30:39;100414.84985351562;;;14.49;84.86
44531;BME280;30240;47.418;0.700;2022-10-30T01:30:45;100414.84985351562;;;14.49;84.86
44531;BME280;30240;47.418;0.700;2022-10-30T01:30:52;100414.84985351562;;;14.49;84.86
44531;BME280;30240;47.418;0.700;2022-10-30T01:31:01;100414.84985351562;;;14.49;84.86
44531;BME280;30240;47.418;0.700;2022-10-30T01:32:57;100407.28149414062;;;14.66;84.11
44531;BME280;30240;47.418;0.700;2022-10-30T01:33:03;100407.28149414062;;;14.66;84.11
44531;BME280;30240;47.418;0.700;2022-10-30T01:35:17;100406.50024414062;;;14.7;84.03
44531;BME280;30240;47.418;0.700;2022-10-30T01:37:44;100407.28759765625;;;14.78;83.56
44531;BME280;30240;47.418;0.700;2022-10-30T01:40:05;100407.28759765625;;;14.78;83.56
44531;BME280;30240;47.418;0.700;2022-10-30T01:42:49;100395.70922851562;;;14.83;83.05
44531;BME280;30240;47.418;0.700;2022-10-30T01:44:54;100394.21997070312;;;14.91;82.76
44531;BME280;30240;47.418;0.700;2022-10-30T01:47:25;100386.09619140625;;;14.76;83.16
44531;BME280;30240;47.418;0.700;2022-10-30T01:50:08;100379.443359375;;;14.63;83.46
44531;BME280;30240;47.418;0.700;2022-10-30T01:50:15;100379.443359375;;;14.63;83.46
44531;BME280;30240;47.418;0.700;2022-10-30T01:52:12;100379.443359375;;;14.63;83.46
44531;BME280;30240;47.418;0.700;2022-10-30T01:54:37;100369.6533203125;;;14.59;83.4
44531;BME280;30240;47.418;0.700;2022-10-30T01:57:03;100370.39184570312;;;14.53;83.73
44531;BME280;30240;47.418;0.700;2022-10-30T01:59:28;100369.3603515625;;;14.55;83.67
44531;BME280;30240;47.418;0.700;2022-10-30T02:01:49;100382.2998046875;;;14.57;83.45
44531;BME280;30240;47.418;0.700;2022-10-30T02:04:14;100382.2998046875;;;14.57;83.45
44531;BME280;30240;47.418;0.700;2022-10-30T02:06:39;100378.40576171875;;;14.64;83.23
44531;BME280;30240;47.418;0.700;2022-10-30T02:09:04;100392.3095703125;;;14.71;83.02
44531;BME280;30240;47.418;0.700;2022-10-30T02:11:30;100405.4443359375;;;14.76;83.06
44531;BME280;30240;47.418;0.700;2022-10-30T02:13:56;100416.97387695312;;;14.49;83.89
44531;BME280;30240;47.418;0.700;2022-10-30T02:16:19;100416.97387695312;;;14.49;83.89
44531;BME280;30240;47.418;0.700;2022-10-30T02:18:44;100422.705078125;;;14.36;84.37
44531;BME280;30240;47.418;0.700;2022-10-30T02:21:09;100428.98559570312;;;14.36;83.95
44531;BME280;30240;47.418;0.700;2022-10-30T02:23:34;100427.50244140625;;;14.39;83.85
44531;BME280;30240;47.418;0.700;2022-10-30T02:25:59;100425.27465820312;;;14.44;83.86
44531;BME280;30240;47.418;0.700;2022-10-30T02:28:23;100425.27465820312;;;14.44;83.86
44531;BME280;30240;47.418;0.700;2022-10-30T02:30:49;100425.36010742188;;;14.46;83.95
44531;BME280;30240;47.418;0.700;2022-10-30T02:33:13;100422.07641601562;;;14.46;83.92
44531;BME280;30240;47.418;0.700;2022-10-30T02:35:39;100404.06494140625;;;14.5;83.88
44531;BME280;30240;47.418;0.700;2022-10-30T02:38:04;100405.85327148438;;;14.43;84.27
44531;BME280;30240;47.418;0.700;2022-10-30T02:40:28;100408.87451171875;;;14.25;84.95
44531;BME280;30240;47.418;0.700;2022-10-30T02:42:54;100408.87451171875;;;14.25;84.95
44531;BME280;30240;47.418;0.700;2022-10-30T02:45:19;100404.57763671875;;;14.3;84.8
44531;BME280;30240;47.418;0.700;2022-10-30T02:47:43;100400.76293945312;;;14.28;84.87
44531;BME280;30240;47.418;0.700;2022-10-30T02:50:08;100395.40405273438;;;14.42;84.56
44531;BME280;30240;47.418;0.700;2022-10-30T02:52:34;100389.17236328125;;;14.47;84.61
44531;BME280;30240;47.418;0.700;2022-10-30T02:54:59;100389.17236328125;;;14.47;84.61
44531;BME280;30240;47.418;0.700;2022-10-30T02:57:23;100380.79833984375;;;14.33;84.51
44531;BME280;30240;47.418;0.700;2022-10-30T02:59:48;100366.7724609375;;;14.42;84.49
44531;BME280;30240;47.418;0.700;2022-10-30T03:02:13;100359.85717773438;;;14.37;83.9
44531;BME280;30240;47.418;0.700;2022-10-30T03:04:39;100352.37426757812;;;14.4;83.69
44531;BME280;30240;47.418;0.700;2022-10-30T03:07:03;100352.37426757812;;;14.4;83.69
44531;BME280;30240;47.418;0.700;2022-10-30T03:09:28;100346.8505859375;;;14.46;83.33
44531;BME280;30240;47.418;0.700;2022-10-30T03:11:54;100350.68969726562;;;14.56;83.13
44531;BME280;30240;47.418;0.700;2022-10-30T03:14:18;100347.16186523438;;;14.49;83.24
44531;BME280;30240;47.418;0.700;2022-10-30T03:16:43;100334.90600585938;;;14.5;83.06
44531;BME280;30240;47.418;0.700;2022-10-30T03:19:08;100334.90600585938;;;14.5;83.06
44531;BME280;30240;47.418;0.700;2022-10-30T03:21:33;100325.2685546875;;;14.39;83.73
44531;BME280;30240;47.418;0.700;2022-10-30T03:23:58;100316.90673828125;;;14.24;84.29
44531;BME280;30240;47.418;0.700;2022-10-30T03:26:24;100306.04858398438;;;14.26;84.21
44531;BME280;30240;47.418;0.700;2022-10-30T03:28:49;100306.64672851562;;;14.25;84.06
44531;BME280;30240;47.418;0.700;2022-10-30T03:31:15;100306.64672851562;;;14.25;84.06
44531;BME280;30240;47.418;0.700;2022-10-30T03:33:39;100311.77368164062;;;14.26;84.04
44531;BME280;30240;47.418;0.700;2022-10-30T03:36:05;100320.15380859375;;;14.21;84.24
44531;BME280;30240;47.418;0.700;2022-10-30T03:38:28;100326.76391601562;;;14.15;84.44
44531;BME280;30240;47.418;0.700;2022-10-30T03:40:54;100335.40649414062;;;14.25;84.09
44531;BME280;30240;47.418;0.700;2022-10-30T03:43:19;100335.40649414062;;;14.25;84.09
44531;BME280;30240;47.418;0.700;2022-10-30T03:45:45;100344.47021484375;;;14.19;84.26
44531;BME280;30240;47.418;0.700;2022-10-30T03:48:09;100344.00024414062;;;14.04;84.76
44531;BME280;30240;47.418;0.700;2022-10-30T03:50:33;100345.84350585938;;;13.94;85.3
44531;BME280;30240;47.418;0.700;2022-10-30T03:52:58;100340.6982421875;;;13.95;85.35
44531;BME280;30240;47.418;0.700;2022-10-30T03:55:24;100340.6982421875;;;13.95;85.35
44531;BME280;30240;47.418;0.700;2022-10-30T03:57:49;100346.30737304688;;;13.8;86.51
44531;BME280;30240;47.418;0.700;2022-10-30T04:00:14;100353.21655273438;;;13.73;86.9
44531;BME280;30240;47.418;0.700;2022-10-30T04:02:43;100360.06469726562;;;13.76;87.2
44531;BME280;30240;47.418;0.700;2022-10-30T04:05:04;100365.32592773438;;;13.63;87.73
44531;BME280;30240;47.418;0.700;2022-10-30T04:07:28;100373.93798828125;;;13.56;88.38
44531;BME280;30240;47.418;0.700;2022-10-30T04:09:54;100373.93798828125;;;13.56;88.38
44531;BME280;30240;47.418;0.700;2022-10-30T04:12:18;100365.59448242188;;;13.41;89.01
44531;BME280;30240;47.418;0.700;2022-10-30T04:14:44;100357.69653320312;;;13.39;89.16
44531;BME280;30240;47.418;0.700;2022-10-30T04:17:08;100358.43505859375;;;13.39;88.83
44531;BME280;30240;47.418;0.700;2022-10-30T04:19:33;100353.86962890625;;;13.38;89.11
44531;BME280;30240;47.418;0.700;2022-10-30T04:21:59;100353.86962890625;;;13.38;89.11
44531;BME280;30240;47.418;0.700;2022-10-30T04:24:23;100357.01293945312;;;13.36;88.94
44531;BME280;30240;47.418;0.700;2022-10-30T04:26:48;100356.4697265625;;;13.35;88.86
44531;BME280;30240;47.418;0.700;2022-10-30T04:29:14;100345.703125;;;13.35;88.77
44531;BME280;30240;47.418;0.700;2022-10-30T04:31:39;100349.59106445312;;;13.25;89.15
44531;BME280;30240;47.418;0.700;2022-10-30T04:34:04;100349.59106445312;;;13.25;89.15
44531;BME280;30240;47.418;0.700;2022-10-30T04:36:28;100349.609375;;;13.18;89.4
44531;BME280;30240;47.418;0.700;2022-10-30T04:38:53;100355.52978515625;;;13.24;89.2
44531;BME280;30240;47.418;0.700;2022-10-30T04:41:18;100354.94384765625;;;13.25;89.18
44531;BME280;30240;47.418;0.700;2022-10-30T04:43:43;100352.25219726562;;;13.15;89.55
44531;BME280;30240;47.418;0.700;2022-10-30T04:46:08;100352.25219726562;;;13.15;89.55
44531;BME280;30240;47.418;0.700;2022-10-30T04:48:33;100341.46118164062;;;13.17;89.61
44531;BME280;30240;47.418;0.700;2022-10-30T04:50:59;100340.66162109375;;;13.24;89.01
44531;BME280;30240;47.418;0.700;2022-10-30T04:53:23;100349.27368164062;;;13.32;88.62
44531;BME280;30240;47.418;0.700;2022-10-30T04:55:52;100348.63891601562;;;13.36;88.38
44531;BME280;30240;47.418;0.700;2022-10-30T04:58:14;100348.63891601562;;;13.36;88.38
44531;BME280;30240;47.418;0.700;2022-10-30T05:00:39;100354.02221679688;;;13.35;88.37
44531;BME280;30240;47.418;0.700;2022-10-30T05:03:04;100345.93505859375;;;13.34;88.39
44531;BME280;30240;47.418;0.700;2022-10-30T05:05:30;100320.5078125;;;13.41;87.99
44531;BME280;30240;47.418;0.700;2022-10-30T05:07:54;100342.2607421875;;;13.58;87.29
44531;BME280;30240;47.418;0.700;2022-10-30T05:10:19;100342.2607421875;;;13.58;87.29
44531;BME280;30240;47.418;0.700;2022-10-30T05:12:44;100332.7392578125;;;13.59;87.0
44531;BME280;30240;47.418;0.700;2022-10-30T05:15:09;100318.1396484375;;;13.69;86.72
44531;BME280;30240;47.418;0.700;2022-10-30T05:17:34;100337.060546875;;;13.77;86.34
44531;BME280;30240;47.418;0.700;2022-10-30T05:19:59;100317.65747070312;;;13.67;86.58
44531;BME280;30240;47.418;0.700;2022-10-30T05:22:24;100317.65747070312;;;13.67;86.58
44531;BME280;30240;47.418;0.700;2022-10-30T05:24:48;100324.07836914062;;;13.77;86.16
44531;BME280;30240;47.418;0.700;2022-10-30T05:27:14;100331.78100585938;;;13.8;85.97
44531;BME280;30240;47.418;0.700;2022-10-30T05:29:38;100339.04418945312;;;13.81;85.99
44531;BME280;30240;47.418;0.700;2022-10-30T05:32:04;100327.98461914062;;;13.73;86.09
44531;BME280;30240;47.418;0.700;2022-10-30T05:34:28;100327.98461914062;;;13.73;86.09
44531;BME280;30240;47.418;0.700;2022-10-30T05:36:53;100333.01391601562;;;13.77;86.14
44531;BME280;30240;47.418;0.700;2022-10-30T05:39:18;100336.99951171875;;;13.71;86.46
44531;BME280;30240;47.418;0.700;2022-10-30T05:41:43;100332.18994140625;;;13.71;86.29
44531;BME280;30240;47.418;0.700;2022-10-30T05:44:08;100333.31298828125;;;13.69;86.66
44531;BME280;30240;47.418;0.700;2022-10-30T05:46:33;100332.06787109375;;;13.6;87.12
44531;BME280;30240;47.418;0.700;2022-10-30T05:48:58;100332.06787109375;;;13.6;87.12
44531;BME280;30240;47.418;0.700;2022-10-30T05:51:23;100327.26440429688;;;13.46;87.4
44531;BME280;30240;47.418;0.700;2022-10-30T05:53:48;100324.07836914062;;;13.43;87.5
44531;BME280;30240;47.418;0.700;2022-10-30T05:56:14;100334.58862304688;;;13.52;87.44
44531;BME280;30240;47.418;0.700;2022-10-30T05:58:38;100335.21728515625;;;13.48;87.37
44531;BME280;30240;47.418;0.700;2022-10-30T06:01:04;100335.21728515625;;;13.48;87.37
44531;BME280;30240;47.418;0.700;2022-10-30T06:03:28;100333.78295898438;;;13.39;87.65
44531;BME280;30240;47.418;0.700;2022-10-30T06:05:53;100336.90795898438;;;13.39;87.69
44531;BME280;30240;47.418;0.700;2022-10-30T06:08:18;100339.76440429688;;;13.48;87.38
44531;BME280;30240;47.418;0.700;2022-10-30T06:10:43;100341.49169921875;;;13.43;87.73
44531;BME280;30240;47.418;0.700;2022-10-30T06:13:09;100341.49169921875;;;13.43;87.73
44531;BME280;30240;47.418;0.700;2022-10-30T06:15:33;100330.29174804688;;;13.41;87.8
44531;BME280;30240;47.418;0.700;2022-10-30T06:17:59;100332.14111328125;;;13.48;87.4
44531;BME280;30240;47.418;0.700;2022-10-30T06:20:25;100334.09423828125;;;13.45;87.35
44531;BME280;30240;47.418;0.700;2022-10-30T06:22:53;100335.04638671875;;;13.43;87.4
44531;BME280;30240;47.418;0.700;2022-10-30T06:25:14;100335.04638671875;;;13.43;87.4
44531;BME280;30240;47.418;0.700;2022-10-30T06:27:39;100343.43872070312;;;13.48;87.62
44531;BME280;30240;47.418;0.700;2022-10-30T06:30:04;100355.70068359375;;;13.34;87.82
44531;BME280;30240;47.418;0.700;2022-10-30T06:32:28;100389.0625;;;13.36;88.06
44531;BME280;30240;47.418;0.700;2022-10-30T06:34:53;100408.5205078125;;;13.34;88.38
44531;BME280;30240;47.418;0.700;2022-10-30T06:37:20;100408.5205078125;;;13.34;88.38
44531;BME280;30240;47.418;0.700;2022-10-30T06:39:43;100410.986328125;;;13.28;88.7
44531;BME280;30240;47.418;0.700;2022-10-30T06:42:08;100421.39892578125;;;13.29;88.49
44531;BME280;30240;47.418;0.700;2022-10-30T06:44:33;100415.49072265625;;;13.32;88.3
44531;BME280;30240;47.418;0.700;2022-10-30T06:46:58;100423.6328125;;;13.45;87.84
44531;BME280;30240;47.418;0.700;2022-10-30T06:49:23;100423.6328125;;;13.45;87.84
44531;BME280;30240;47.418;0.700;2022-10-30T06:51:49;100422.0458984375;;;13.36;88.35
44531;BME280;30240;47.418;0.700;2022-10-30T06:54:14;100429.38842773438;;;13.42;87.65
44531;BME280;30240;47.418;0.700;2022-10-30T06:56:38;100431.24389648438;;;13.46;87.66
44531;BME280;30240;47.418;0.700;2022-10-30T06:59:03;100436.4013671875;;;13.49;87.88
44531;BME280;30240;47.418;0.700;2022-10-30T07:01:28;100436.4013671875;;;13.49;87.88
44531;BME280;30240;47.418;0.700;2022-10-30T07:03:53;100440.96069335938;;;13.5;87.52
44531;BME280;30240;47.418;0.700;2022-10-30T07:06:19;100428.90014648438;;;13.58;87.33
44531;BME280;30240;47.418;0.700;2022-10-30T07:08:45;100438.4033203125;;;13.62;86.77
44531;BME280;30240;47.418;0.700;2022-10-30T07:11:09;100441.09497070312;;;13.8;85.91
44531;BME280;30240;47.418;0.700;2022-10-30T07:13:34;100437.20092773438;;;14.0;85.13
44531;BME280;30240;47.418;0.700;2022-10-30T07:15:58;100437.20092773438;;;14.0;85.13
44531;BME280;30240;47.418;0.700;2022-10-30T07:18:24;100442.32788085938;;;14.25;83.93
44531;BME280;30240;47.418;0.700;2022-10-30T07:20:52;100442.9931640625;;;14.44;82.85
44531;BME280;30240;47.418;0.700;2022-10-30T07:23:13;100436.1572265625;;;14.61;82.05
44531;BME280;30240;47.418;0.700;2022-10-30T07:25:39;100433.59375;;;14.8;81.16
44531;BME280;30240;47.418;0.700;2022-10-30T07:28:04;100433.59375;;;14.8;81.16
44531;BME280;30240;47.418;0.700;2022-10-30T07:30:28;100429.296875;;;14.99;80.58
44531;BME280;30240;47.418;0.700;2022-10-30T07:32:55;100439.04418945312;;;15.08;79.91
44531;BME280;30240;47.418;0.700;2022-10-30T07:35:18;100445.67260742188;;;15.16;79.86
44531;BME280;30240;47.418;0.700;2022-10-30T07:37:43;100451.2939453125;;;15.23;79.68
44531;BME280;30240;47.418;0.700;2022-10-30T07:40:09;100451.2939453125;;;15.23;79.68
44531;BME280;30240;47.418;0.700;2022-10-30T07:42:33;100452.9296875;;;15.29;79.42
44531;BME280;30240;47.418;0.700;2022-10-30T07:44:58;100452.03857421875;;;15.2;79.45
44531;BME280;30240;47.418;0.700;2022-10-30T07:47:24;100454.63256835938;;;15.37;79.43
44531;BME280;30240;47.418;0.700;2022-10-30T07:49:48;100463.43994140625;;;15.53;79.0
44531;BME280;30240;47.418;0.700;2022-10-30T07:52:13;100463.43994140625;;;15.53;79.0
44531;BME280;30240;47.418;0.700;2022-10-30T07:54:38;100468.24951171875;;;15.53;79.14
44531;BME280;30240;47.418;0.700;2022-10-30T07:57:03;100463.8916015625;;;15.6;78.84
44531;BME280;30240;47.418;0.700;2022-10-30T07:59:29;100465.60668945312;;;15.65;78.88
44531;BME280;30240;47.418;0.700;2022-10-30T08:01:53;100471.45385742188;;;15.61;79.1
44531;BME280;30240;47.418;0.700;2022-10-30T08:04:19;100471.45385742188;;;15.61;79.1
44531;BME280;30240;47.418;0.700;2022-10-30T08:06:44;100476.2939453125;;;15.61;79.0
44531;BME280;30240;47.418;0.700;2022-10-30T08:09:09;100480.16967773438;;;15.47;79.68
44531;BME280;30240;47.418;0.700;2022-10-30T08:11:39;100491.6748046875;;;15.22;80.8
44531;BME280;30240;47.418;0.700;2022-10-30T08:13:59;100493.65844726562;;;14.96;81.63
44531;BME280;30240;47.418;0.700;2022-10-30T08:16:23;100493.65844726562;;;14.96;81.63
44531;BME280;30240;47.418;0.700;2022-10-30T08:18:49;100504.13208007812;;;15.08;81.34
44531;BME280;30240;47.418;0.700;2022-10-30T08:28:28;100512.92114257812;;;15.23;80.94
44531;BME280;30240;47.418;0.700;2022-10-30T08:30:57;100510.43090820312;;;15.3;80.87
44531;BME280;30240;47.418;0.700;2022-10-30T08:33:20;100511.72485351562;;;15.29;81.44
44531;BME280;30240;47.418;0.700;2022-10-30T08:35:47;100522.0947265625;;;15.42;81.44
44531;BME280;30240;47.418;0.700;2022-10-30T08:38:09;100521.533203125;;;15.68;81.52
44531;BME280;30240;47.418;0.700;2022-10-30T08:40:34;100521.533203125;;;15.68;81.52
44531;BME280;30240;47.418;0.700;2022-10-30T08:42:58;100539.75219726562;;;15.57;82.61
44531;BME280;30240;47.418;0.700;2022-10-30T08:45:24;100537.939453125;;;15.39;84.14
44531;BME280;30240;47.418;0.700;2022-10-30T08:47:55;100540.51513671875;;;15.46;84.4
44531;BME280;30240;47.418;0.700;2022-10-30T08:50:14;100551.8310546875;;;15.29;85.6
44531;BME280;30240;47.418;0.700;2022-10-30T08:52:38;100542.46826171875;;;15.33;86.39
44531;BME280;30240;47.418;0.700;2022-10-30T08:55:04;100542.46826171875;;;15.33;86.39
44531;BME280;30240;47.418;0.700;2022-10-30T08:57:34;100546.20971679688;;;15.39;86.29
44531;BME280;30240;47.418;0.700;2022-10-30T08:59:54;100545.17211914062;;;15.68;85.47
44531;BME280;30240;47.418;0.700;2022-10-30T09:02:18;100552.0751953125;;;15.65;85.99
44531;BME280;30240;47.418;0.700;2022-10-30T09:04:43;100549.4873046875;;;16.03;85.02
44531;BME280;30240;47.418;0.700;2022-10-30T09:07:09;100549.4873046875;;;16.03;85.02
44531;BME280;30240;47.418;0.700;2022-10-30T09:09:34;100551.62353515625;;;16.64;82.72
44531;BME280;30240;47.418;0.700;2022-10-30T09:11:59;100563.27514648438;;;16.12;84.61
44531;BME280;30240;47.418;0.700;2022-10-30T09:14:24;100565.46630859375;;;16.23;84.15
44531;BME280;30240;47.418;0.700;2022-10-30T09:16:48;100557.00073242188;;;16.55;83.76
44531;BME280;30240;47.418;0.700;2022-10-30T09:19:14;100557.00073242188;;;16.55;83.76
44531;BME280;30240;47.418;0.700;2022-10-30T09:21:38;100557.72094726562;;;16.72;82.67
44531;BME280;30240;47.418;0.700;2022-10-30T09:24:04;100550.42114257812;;;16.9;82.04
44531;BME280;30240;47.418;0.700;2022-10-30T09:26:28;100563.77563476562;;;16.41;83.0
44531;BME280;30240;47.418;0.700;2022-10-30T09:28:53;100557.48291015625;;;16.58;82.22
44531;BME280;30240;47.418;0.700;2022-10-30T09:31:19;100557.48291015625;;;16.58;82.22
44531;BME280;30240;47.418;0.700;2022-10-30T09:33:43;100562.90893554688;;;16.76;81.93
44531;BME280;30240;47.418;0.700;2022-10-30T09:36:08;100578.3447265625;;;16.26;82.79
44531;BME280;30240;47.418;0.700;2022-10-30T09:38:33;100573.52905273438;;;16.48;82.29
44531;BME280;30240;47.418;0.700;2022-10-30T09:41:06;100583.79516601562;;;16.71;81.58
44531;BME280;30240;47.418;0.700;2022-10-30T09:41:16;100583.79516601562;;;16.71;81.58
44531;BME280;30240;47.418;0.700;2022-10-30T09:43:29;100583.79516601562;;;16.71;81.58
44531;BME280;30240;47.418;0.700;2022-10-30T09:45:55;100595.97778320312;;;16.76;81.2
44531;BME280;30240;47.418;0.700;2022-10-30T09:48:43;100597.90649414062;;;17.11;80.21
44531;BME280;30240;47.418;0.700;2022-10-30T09:49:04;100597.90649414062;;;17.11;80.21
44531;BME280;30240;47.418;0.700;2022-10-30T09:50:49;100610.57739257812;;;16.8;81.23
44531;BME280;30240;47.418;0.700;2022-10-30T09:50:54;100610.57739257812;;;16.8;81.23
44531;BME280;30240;47.418;0.700;2022-10-30T09:51:01;100610.57739257812;;;16.8;81.23
44531;BME280;30240;47.418;0.700;2022-10-30T09:51:08;100610.57739257812;;;16.8;81.23
44531;BME280;30240;47.418;0.700;2022-10-30T09:51:15;100610.57739257812;;;16.8;81.23
44531;BME280;30240;47.418;0.700;2022-10-30T09:53:14;100614.3310546875;;;16.72;81.29
44531;BME280;30240;47.418;0.700;2022-10-30T09:55:32;100614.3310546875;;;16.72;81.29
44531;BME280;30240;47.418;0.700;2022-10-30T09:57:59;100625.830078125;;;16.78;81.45
44531;BME280;30240;47.418;0.700;2022-10-30T10:00:20;100630.47485351562;;;16.61;81.95
44531;BME280;30240;47.418;0.700;2022-10-30T10:02:54;100635.35766601562;;;16.41;82.84
44531;BME280;30240;47.418;0.700;2022-10-30T10:05:13;100638.1103515625;;;17.0;81.36
44531;BME280;30240;47.418;0.700;2022-10-30T10:07:37;100638.1103515625;;;17.0;81.36
44531;BME280;30240;47.418;0.700;2022-10-30T10:10:02;100646.044921875;;;16.61;82.02
44531;BME280;30240;47.418;0.700;2022-10-30T10:12:27;100649.18823242188;;;16.73;81.15
44531;BME280;30240;47.418;0.700;2022-10-30T10:14:49;100667.26684570312;;;16.65;81.65
44531;BME280;30240;47.418;0.700;2022-10-30T10:17:19;100662.59155273438;;;16.52;82.67
44531;BME280;30240;47.418;0.700;2022-10-30T10:19:43;100654.70581054688;;;17.18;80.56
44531;BME280;30240;47.418;0.700;2022-10-30T10:22:19;100654.70581054688;;;17.18;80.56
44531;BME280;30240;47.418;0.700;2022-10-30T10:24:30;100665.49072265625;;;17.03;80.42
44531;BME280;30240;47.418;0.700;2022-10-30T10:26:56;100665.89965820312;;;16.78;81.37
44531;BME280;30240;47.418;0.700;2022-10-30T10:29:32;100668.9208984375;;;16.45;82.31
44531;BME280;30240;47.418;0.700;2022-10-30T10:31:47;100675.0;;;16.85;80.63
44531;BME280;30240;47.418;0.700;2022-10-30T10:34:21;100675.0;;;16.85;80.63
44531;BME280;30240;47.418;0.700;2022-10-30T10:36:38;100688.02490234375;;;16.73;80.53
44531;BME280;30240;47.418;0.700;2022-10-30T10:39:05;100695.5810546875;;;16.79;80.62
44531;BME280;30240;47.418;0.700;2022-10-30T10:41:29;100703.42407226562;;;17.03;79.58
44531;BME280;30240;47.418;0.700;2022-10-30T10:43:58;100699.7314453125;;;17.85;77.34
44531;BME280;30240;47.418;0.700;2022-10-30T10:46:22;100699.7314453125;;;17.85;77.34